Time;durP1;ratioP1;P1;durP2;ratioP2;P2;SDS_P1;SDS_P2;PMS_P1;PMS_P2;Temp;Humidity;BMP_temperature;BMP_pressure;BME280_temperature;BME280_humidity;BME280_pressure;Samples;Min_cycle;Max_cycle;Signal;HPM_P1;HPM_P2
2024/02/10 00:00:20;;;;;;;14.15;7.20;;;12.70;99.90;;;13.06;100.00;98317.41;5014610;28;20398;-62
2024/02/10 00:02:50;;;;;;;14.52;6.47;;;12.80;99.90;;;13.01;100.00;98325.59;5014905;28;20053;-64
2024/02/10 00:05:21;;;;;;;15.70;7.00;;;12.80;99.90;;;13.02;100.00;98303.44;5014788;28;20554;-62
2024/02/10 00:07:55;;;;;;;18.65;7.10;;;12.80;99.90;;;13.04;100.00;98319.31;5014853;28;20454;-62
2024/02/10 00:10:27;;;;;;;16.20;7.28;;;12.90;99.90;;;13.01;100.00;98338.84;5014757;28;20038;-62
2024/02/10 00:12:57;;;;;;;17.48;7.47;;;12.80;99.90;;;12.84;100.00;98304.44;5014507;28;20053;-62
2024/02/10 00:15:27;;;;;;;13.00;6.43;;;12.80;99.90;;;12.83;100.00;98294.78;5013816;28;20077;-62
2024/02/10 00:17:56;;;;;;;14.45;6.65;;;12.80;99.90;;;12.94;100.00;98312.75;5014287;28;20046;-63
2024/02/10 00:20:25;;;;;;;12.98;6.65;;;12.80;99.90;;;12.99;100.00;98329.28;5014176;28;20509;-62
2024/02/10 00:22:56;;;;;;;13.57;6.85;;;12.80;99.90;;;13.00;100.00;98326.53;5014186;28;20054;-62
2024/02/10 00:25:25;;;;;;;10.07;6.60;;;12.90;99.90;;;13.08;100.00;98320.84;5014222;28;20137;-62
2024/02/10 00:27:53;;;;;;;14.45;6.50;;;12.90;99.90;;;13.07;100.00;98324.41;5014608;28;20053;-62
2024/02/10 00:30:23;;;;;;;13.18;6.93;;;12.90;99.90;;;13.06;100.00;98309.47;5014037;28;20038;-62
2024/02/10 00:32:52;;;;;;;19.52;7.00;;;12.90;99.90;;;13.14;100.00;98312.53;5014022;28;20492;-62
2024/02/10 00:35:22;;;;;;;17.02;6.22;;;13.00;99.90;;;13.03;100.00;98314.88;5014110;28;20201;-62
2024/02/10 00:37:53;;;;;;;;;;;12.90;99.90;;;13.15;100.00;98311.59;5014437;28;20053;-63
2024/02/10 00:40:23;;;;;;;14.65;6.30;;;13.00;99.90;;;13.00;100.00;98288.53;5014426;28;20339;-62
2024/02/10 00:42:52;;;;;;;17.77;7.10;;;13.00;99.90;;;13.18;100.00;98311.44;5013908;28;20645;-63
2024/02/10 00:45:21;;;;;;;8.95;5.75;;;13.00;99.90;;;13.11;100.00;98320.66;5013731;28;20046;-62
2024/02/10 00:47:50;;;;;;;14.10;6.30;;;12.90;99.90;;;13.11;100.00;98305.59;5013722;28;20132;-62
2024/02/10 00:50:19;;;;;;;16.02;6.32;;;12.90;99.90;;;13.07;100.00;98295.22;5013679;28;20101;-62
2024/02/10 00:52:49;;;;;;;9.73;5.65;;;13.00;99.90;;;13.08;100.00;98312.88;5013474;28;20058;-63
2024/02/10 00:55:18;;;;;;;;;;;12.90;99.90;;;13.03;100.00;98307.81;5014208;28;20125;-61
2024/02/10 00:57:49;;;;;;;12.35;5.88;;;12.90;99.90;;;13.11;100.00;98307.38;5013886;28;19925;-61
2024/02/10 01:00:21;;;;;;;12.07;5.80;;;12.90;99.90;;;13.05;100.00;98305.06;5013560;28;20049;-64
2024/02/10 01:02:50;;;;;;;11.85;5.38;;;12.90;99.90;;;13.04;100.00;98306.91;5013827;28;20042;-61
2024/02/10 01:05:18;;;;;;;13.80;5.43;;;12.90;99.90;;;13.09;100.00;98312.78;5013544;28;20134;-62
2024/02/10 01:07:48;;;;;;;11.68;5.43;;;12.90;99.90;;;13.04;100.00;98321.94;5013201;28;20068;-62
2024/02/10 01:10:17;;;;;;;13.63;5.68;;;12.90;99.90;;;12.99;100.00;98331.94;5013383;28;20104;-62
2024/02/10 01:12:45;;;;;;;11.70;5.35;;;12.80;99.90;;;12.96;100.00;98324.13;5013885;28;20076;-62
2024/02/10 01:15:16;;;;;;;9.50;5.55;;;12.80;99.90;;;12.87;100.00;98304.28;5012413;28;20132;-62
2024/02/10 01:17:46;;;;;;;17.33;5.65;;;12.70;99.90;;;12.92;100.00;98315.50;5013622;28;20038;-61
2024/02/10 01:20:17;;;;;;;9.32;5.40;;;12.70;99.90;;;12.93;100.00;98306.56;5013457;28;20396;-65
2024/02/10 01:22:46;;;;;;;10.25;5.28;;;12.70;99.90;;;12.97;100.00;98321.38;5011644;28;20050;-62
2024/02/10 01:25:14;;;;;;;11.73;5.32;;;12.70;99.90;;;12.98;100.00;98324.91;5011246;28;20395;-64
2024/02/10 01:27:45;;;;;;;11.85;5.20;;;12.80;99.90;;;12.99;100.00;98318.69;4993099;28;20052;-64
2024/02/10 01:30:17;;;;;;;12.40;5.13;;;12.70;99.90;;;13.01;100.00;98330.91;5011846;28;20053;-63
2024/02/10 01:32:46;;;;;;;8.00;5.00;;;12.70;99.90;;;12.99;100.00;98335.44;5011201;28;20100;-62
2024/02/10 01:35:17;;;;;;;8.88;4.65;;;12.80;99.90;;;12.88;100.00;98339.59;5011088;28;20046;-65
2024/02/10 01:37:46;;;;;;;8.82;4.55;;;12.70;99.90;;;13.02;100.00;98316.69;5011070;28;20046;-62
2024/02/10 01:40:16;;;;;;;9.02;5.00;;;12.80;99.90;;;13.07;100.00;98319.97;5011305;28;20045;-64
2024/02/10 01:42:45;;;;;;;10.13;5.15;;;12.80;99.90;;;12.89;100.00;98320.94;5011386;28;20052;-63
2024/02/10 01:45:17;;;;;;;6.85;5.30;;;12.70;99.90;;;12.89;100.00;98331.56;5009828;28;20058;-65
2024/02/10 01:47:47;;;;;;;9.00;4.53;;;12.70;99.90;;;12.90;100.00;98340.38;5011048;28;20046;-62
2024/02/10 01:50:16;;;;;;;6.17;4.43;;;12.70;99.90;;;12.78;100.00;98330.41;5011338;28;20128;-63
2024/02/10 01:52:48;;;;;;;11.45;5.13;;;12.60;99.90;;;12.65;100.00;98317.84;5010809;28;20329;-63
2024/02/10 01:55:17;;;;;;;9.95;4.80;;;12.70;99.90;;;12.90;100.00;98317.38;5011248;28;20052;-63
2024/02/10 01:57:52;;;;;;;8.68;4.90;;;12.70;99.90;;;12.88;100.00;98321.03;5011087;28;20050;-62
2024/02/10 02:00:24;;;;;;;8.32;5.20;;;12.70;99.90;;;12.97;100.00;98334.66;5011501;28;20077;-64
2024/02/10 02:02:59;;;;;;;11.50;5.35;;;12.70;99.90;;;12.85;100.00;98337.13;5011259;28;20122;-62
2024/02/10 02:05:29;;;;;;;8.98;5.03;;;12.70;99.90;;;12.98;100.00;98327.56;5010870;28;20392;-63
2024/02/10 02:07:58;;;;;;;8.73;4.85;;;12.80;99.90;;;13.01;100.00;98336.19;5010847;28;20129;-62
2024/02/10 02:10:26;;;;;;;8.00;4.85;;;12.80;99.90;;;13.05;100.00;98331.59;5011101;28;20454;-62
2024/02/10 02:12:55;;;;;;;9.95;5.50;;;12.80;99.90;;;13.04;100.00;98341.41;5011357;28;20041;-63
2024/02/10 02:15:27;;;;;;;7.30;4.78;;;12.90;99.90;;;13.07;100.00;98333.25;5011013;28;20046;-64
2024/02/10 02:17:57;;;;;;;9.88;5.10;;;12.80;99.90;;;12.91;100.00;98348.25;5010710;28;20037;-62
2024/02/10 02:20:28;;;;;;;;;;;12.80;99.90;;;12.91;100.00;98334.97;4993870;28;20487;-62
2024/02/10 02:23:00;;;;;;;12.27;5.55;;;12.70;99.90;;;13.00;100.00;98320.38;5011047;28;19921;-62
2024/02/10 02:25:28;;;;;;;7.75;4.80;;;12.80;99.90;;;12.97;100.00;98323.22;5010641;28;20422;-65
2024/02/10 02:27:58;;;;;;;9.50;5.60;;;12.80;99.90;;;12.97;100.00;98317.91;5010577;28;20042;-62
2024/02/10 02:30:27;;;;;;;11.15;5.00;;;12.80;99.90;;;12.92;100.00;98317.28;5011126;28;20519;-63
2024/02/10 02:32:56;;;;;;;12.02;5.85;;;12.70;99.90;;;12.87;100.00;98330.81;5010881;28;20052;-64
2024/02/10 02:35:25;;;;;;;10.88;5.13;;;12.60;99.90;;;12.96;100.00;98313.53;5010862;28;20117;-64
2024/02/10 02:37:55;;;;;;;7.93;4.80;;;12.70;99.90;;;13.00;100.00;98323.03;5010471;28;20053;-63
2024/02/10 02:40:26;;;;;;;8.97;5.43;;;12.80;99.90;;;13.02;100.00;98319.34;5014632;28;20050;-65
2024/02/10 02:42:56;;;;;;;9.95;5.38;;;12.80;99.90;;;12.90;100.00;98314.72;5014210;28;20053;-63
2024/02/10 02:45:24;;;;;;;8.57;5.28;;;12.70;99.90;;;12.89;100.00;98313.00;5014395;28;20045;-63
2024/02/10 02:47:52;;;;;;;10.27;5.63;;;12.70;99.90;;;12.91;100.00;98304.97;5014358;28;20054;-62
2024/02/10 02:50:24;;;;;;;11.07;5.75;;;12.70;99.90;;;12.90;100.00;98308.53;5014073;28;20046;-63
2024/02/10 02:52:54;;;;;;;11.30;5.68;;;12.70;99.90;;;12.69;100.00;98310.59;5014058;28;20050;-62
2024/02/10 02:55:22;;;;;;;9.60;5.63;;;12.60;99.90;;;12.64;100.00;98304.66;5013931;28;20108;-63
2024/02/10 02:57:52;;;;;;;10.00;5.78;;;12.50;99.90;;;12.54;100.00;98298.97;5014203;28;20072;-63
2024/02/10 03:00:21;;;;;;;11.15;5.68;;;12.40;99.90;;;12.45;100.00;98309.22;5014119;28;20127;-65
2024/02/10 03:02:51;;;;;;;10.27;5.80;;;12.30;99.90;;;12.43;100.00;98308.44;5014315;28;20149;-62
2024/02/10 03:05:19;;;;;;;12.13;5.30;;;12.20;99.90;;;12.39;100.00;98306.88;5013741;28;20108;-62
2024/02/10 03:07:47;;;;;;;9.00;5.65;;;12.30;99.90;;;12.37;100.00;98303.47;5013703;28;20060;-62
2024/02/10 03:10:16;;;;;;;14.90;5.60;;;12.20;99.90;;;12.37;100.00;98300.81;5013946;28;20373;-62
2024/02/10 03:12:46;;;;;;;10.63;5.53;;;12.20;99.90;;;12.46;100.00;98300.34;5014154;28;20060;-62
2024/02/10 03:15:17;;;;;;;12.20;5.53;;;12.30;99.90;;;12.47;100.00;98294.97;5013571;28;20511;-65
2024/02/10 03:17:46;;;;;;;10.75;6.03;;;12.30;99.90;;;12.44;100.00;98302.22;5013982;28;20049;-62
2024/02/10 03:20:23;;;;;;;13.35;5.90;;;12.30;99.90;;;12.34;100.00;98301.00;5013837;28;20049;-63
2024/02/10 03:22:58;;;;;;;10.25;5.90;;;12.20;99.90;;;12.35;100.00;98303.56;5013566;28;20049;-63
2024/02/10 03:25:27;;;;;;;11.95;5.70;;;12.20;99.90;;;12.36;100.00;98307.94;5013450;28;20492;-62
2024/02/10 03:27:56;;;;;;;12.25;5.80;;;12.20;99.90;;;12.41;100.00;98302.38;5013363;28;20454;-62
2024/02/10 03:30:26;;;;;;;14.10;6.05;;;12.30;99.90;;;12.52;100.00;98305.34;5013580;28;20046;-64
2024/02/10 03:32:54;;;;;;;9.83;6.20;;;12.30;99.90;;;12.40;100.00;98308.63;5013912;28;20053;-62
2024/02/10 03:35:26;;;;;;;9.33;5.50;;;12.30;99.90;;;12.35;100.00;98300.06;5013300;28;20080;-63
2024/02/10 03:37:54;;;;;;;;;;;12.20;99.90;;;12.36;100.00;98297.34;5013898;28;20030;-63
2024/02/10 03:40:23;;;;;;;11.63;6.72;;;12.20;99.90;;;12.29;100.00;98306.53;5013374;28;19921;-62
2024/02/10 03:42:51;;;;;;;12.70;6.22;;;12.10;99.90;;;12.27;100.00;98311.03;5013384;28;20073;-63
2024/02/10 03:45:20;;;;;;;11.57;6.63;;;12.10;99.90;;;12.24;100.00;98310.34;5013300;28;20128;-65
2024/02/10 03:47:50;;;;;;;14.35;6.63;;;12.10;99.90;;;12.07;100.00;98303.28;5013005;28;20042;-62
2024/02/10 03:50:19;;;;;;;14.93;6.97;;;12.00;99.90;;;12.12;100.00;98313.63;5012280;28;20066;-62
2024/02/10 03:52:48;;;;;;;15.45;7.78;;;12.00;99.90;;;12.12;100.00;98305.69;5012888;28;20057;-63
2024/02/10 03:55:17;;;;;;;13.23;7.13;;;12.00;99.90;;;12.17;100.00;98311.63;5011779;28;20539;-62
2024/02/10 03:57:45;;;;;;;11.70;6.80;;;12.00;99.90;;;12.21;100.00;98298.16;5012775;28;20042;-62
2024/02/10 04:00:26;;;;;;;13.50;6.70;;;12.00;99.90;;;12.23;100.00;98308.66;5012980;28;20046;-62
2024/02/10 04:02:56;;;;;;;15.50;6.70;;;12.10;99.90;;;12.26;100.00;98309.34;5012735;28;20495;-64
2024/02/10 04:05:34;;;;;;;10.90;6.55;;;12.10;99.90;;;12.42;100.00;98306.75;5012790;28;20054;-63
2024/02/10 04:08:03;;;;;;;14.00;6.18;;;12.20;99.90;;;12.38;100.00;98305.19;5012697;28;20053;-64
2024/02/10 04:10:31;;;;;;;17.63;6.65;;;12.20;99.90;;;12.52;100.00;98306.16;5012778;28;20100;-62
2024/02/10 04:13:08;;;;;;;14.88;6.50;;;12.30;99.90;;;12.39;100.00;98302.47;5012774;28;20077;-62
2024/02/10 04:15:37;;;;;;;9.95;6.22;;;12.30;99.90;;;12.43;100.00;98316.41;5013049;28;20038;-63
2024/02/10 04:18:07;;;;;;;16.50;6.60;;;12.30;99.90;;;12.31;100.00;98320.56;5012384;28;20050;-62
2024/02/10 04:20:35;;;;;;;10.00;5.78;;;12.20;99.90;;;12.45;100.00;98320.69;5012681;28;20124;-63
2024/02/10 04:23:05;;;;;;;13.93;6.35;;;12.20;99.90;;;12.54;100.00;98322.84;5012419;28;20108;-63
2024/02/10 04:25:33;;;;;;;13.97;6.53;;;12.40;99.90;;;12.57;100.00;98325.34;5012331;28;20056;-64
2024/02/10 04:28:02;;;;;;;22.05;5.93;;;12.40;99.90;;;12.61;100.00;98323.38;5012484;28;20042;-62
2024/02/10 04:30:31;;;;;;;15.13;6.28;;;12.50;99.90;;;12.77;100.00;98342.00;5012411;28;20050;-63
2024/02/10 04:33:01;;;;;;;9.13;5.53;;;12.60;99.90;;;12.73;100.00;98324.53;5012142;28;20420;-63
2024/02/10 04:35:31;;;;;;;9.95;5.78;;;12.60;99.90;;;12.74;100.00;98320.94;5012068;28;20088;-63
2024/02/10 04:38:02;;;;;;;12.88;6.43;;;12.60;99.90;;;12.57;100.00;98304.13;5012031;28;20065;-62
2024/02/10 04:40:30;;;;;;;14.45;6.25;;;12.50;99.90;;;12.80;100.00;98326.75;5012090;28;20513;-66
2024/02/10 04:42:59;;;;;;;12.52;5.95;;;12.60;99.90;;;12.78;100.00;98335.72;5011943;28;20121;-62
2024/02/10 04:45:30;;;;;;;13.07;6.43;;;12.60;99.90;;;12.61;100.00;98328.69;5012198;28;20057;-64
2024/02/10 04:48:00;;;;;;;12.10;6.30;;;12.50;99.90;;;12.46;100.00;98317.13;5012000;28;20045;-62
2024/02/10 04:50:30;;;;;;;10.77;7.03;;;12.30;99.90;;;11.95;100.00;98207.69;5012047;28;20050;-64
2024/02/10 04:52:59;;;;;;;;;;;12.40;99.90;;;12.61;100.00;98312.78;5012408;28;20456;-62
2024/02/10 04:55:28;;;;;;;13.48;6.88;;;12.40;99.90;;;12.48;100.00;98327.63;5011769;28;20287;-63
2024/02/10 04:57:56;;;;;;;12.00;6.18;;;12.30;99.90;;;12.38;100.00;98315.78;5011663;28;20041;-64
2024/02/10 05:00:25;;;;;;;10.55;6.50;;;12.30;99.90;;;12.22;100.00;98317.53;5011913;28;20107;-63
2024/02/10 05:02:53;;;;;;;13.05;6.90;;;12.10;99.90;;;12.28;100.00;98322.50;5011546;28;20049;-64
2024/02/10 05:05:22;;;;;;;16.35;6.78;;;12.10;99.90;;;12.14;100.00;98330.31;5010608;28;20521;-62
2024/02/10 05:07:55;;;;;;;14.10;7.15;;;12.00;99.90;;;12.16;100.00;98321.34;5012117;28;20443;-63
2024/02/10 05:10:25;;;;;;;10.63;6.22;;;12.00;99.90;;;12.25;100.00;98327.97;5011741;28;20041;-63
2024/02/10 05:12:55;;;;;;;15.57;7.10;;;12.00;99.90;;;12.24;100.00;98331.56;5011729;28;20064;-62
2024/02/10 05:15:26;;;;;;;17.23;7.07;;;12.00;99.90;;;12.17;100.00;98325.72;5011421;28;20060;-62
2024/02/10 05:17:55;;;;;;;10.13;6.47;;;12.00;99.90;;;12.23;100.00;98341.28;4993918;28;20045;-63
2024/02/10 05:20:26;;;;;;;14.32;6.82;;;12.00;99.90;;;12.18;100.00;98339.81;5011886;28;20049;-63
2024/02/10 05:22:57;;;;;;;13.55;6.90;;;12.00;99.90;;;12.13;100.00;98344.50;5011419;28;20042;-62
2024/02/10 05:25:30;;;;;;;14.70;6.60;;;12.00;99.90;;;12.17;100.00;98351.38;5011520;28;20568;-62
2024/02/10 05:28:00;;;;;;;14.63;7.05;;;12.00;99.90;;;12.13;100.00;98357.75;5011322;28;20132;-62
2024/02/10 05:30:30;;;;;;;11.20;6.63;;;12.00;99.90;;;12.09;100.00;98356.19;5011609;28;20462;-63
2024/02/10 05:33:01;;;;;;;11.02;6.40;;;12.00;99.90;;;11.44;100.00;98235.03;5011264;28;20046;-63
2024/02/10 05:35:31;;;;;;;13.15;6.45;;;11.90;99.90;;;12.09;100.00;98354.41;5011173;28;20077;-64
2024/02/10 05:38:03;;;;;;;14.30;6.20;;;11.90;99.90;;;12.11;100.00;98351.66;5011081;28;20045;-62
2024/02/10 05:40:33;;;;;;;17.75;6.43;;;11.90;99.90;;;12.00;100.00;98356.66;5011420;28;20069;-62
2024/02/10 05:43:04;;;;;;;11.52;6.32;;;11.90;99.90;;;11.94;100.00;98349.88;5011616;28;20053;-65
2024/02/10 05:45:35;;;;;;;13.00;6.50;;;11.80;99.90;;;12.03;100.00;98349.41;5011012;28;20054;-64
2024/02/10 05:48:05;;;;;;;13.00;6.73;;;11.90;99.90;;;12.03;100.00;98367.09;5011325;28;20061;-63
2024/02/10 05:50:36;;;;;;;11.57;6.83;;;11.90;99.90;;;12.04;100.00;98358.22;4993678;28;20998;-62
2024/02/10 05:53:07;;;;;;;12.82;6.00;;;11.80;99.90;;;12.05;100.00;98363.44;5011223;28;20431;-63
2024/02/10 05:55:37;;;;;;;9.95;6.20;;;11.90;99.90;;;12.00;100.00;98349.56;5010968;28;20042;-61
2024/02/10 05:58:06;;;;;;;12.90;6.53;;;11.80;99.90;;;12.20;100.00;98367.09;5011200;28;20096;-61
2024/02/10 06:00:43;;;;;;;10.73;6.18;;;12.00;99.90;;;12.20;100.00;98370.59;5010878;28;20056;-62
2024/02/10 06:03:12;;;;;;;12.35;6.38;;;12.00;99.90;;;12.20;100.00;98372.38;5011280;28;20415;-62
2024/02/10 06:05:41;;;;;;;10.43;6.07;;;12.10;99.90;;;12.22;100.00;98378.47;5010884;28;20049;-62
2024/02/10 06:08:12;;;;;;;12.77;7.13;;;12.10;99.90;;;12.11;100.00;98376.38;5011130;28;20480;-64
2024/02/10 06:10:41;;;;;;;;;;;12.00;99.90;;;12.24;100.00;98384.56;5011580;28;20144;-62
2024/02/10 06:13:14;;;;;;;11.35;6.07;;;12.10;99.90;;;12.25;100.00;98378.34;5010869;28;20016;-63
2024/02/10 06:15:44;;;;;;;13.52;6.63;;;12.10;99.90;;;12.19;100.00;98378.66;5015068;28;20070;-62
2024/02/10 06:18:12;;;;;;;14.13;7.15;;;12.10;99.90;;;12.19;100.00;98386.59;5014627;28;20144;-63
2024/02/10 06:20:41;;;;;;;14.75;7.00;;;12.00;99.90;;;12.16;100.00;98384.94;5014924;28;20049;-61
2024/02/10 06:23:11;;;;;;;10.52;6.60;;;12.00;99.90;;;12.12;100.00;98385.16;5014554;28;20054;-63
2024/02/10 06:25:41;;;;;;;8.32;6.75;;;12.00;99.90;;;12.15;100.00;98390.34;5014668;28;20046;-64
2024/02/10 06:28:11;;;;;;;15.15;6.88;;;12.00;99.90;;;12.12;100.00;98396.63;5015073;28;20046;-63
2024/02/10 06:30:41;;;;;;;12.48;6.93;;;12.00;99.90;;;12.13;100.00;98392.19;5014372;28;20072;-61
2024/02/10 06:33:10;;;;;;;11.30;6.70;;;12.00;99.90;;;12.10;100.00;98393.19;5014851;28;20041;-61
2024/02/10 06:35:38;;;;;;;18.70;7.18;;;12.00;99.90;;;12.12;100.00;98395.75;5014349;28;20054;-62
2024/02/10 06:38:07;;;;;;;12.90;6.75;;;12.00;99.90;;;11.98;100.00;98401.75;5014284;28;20077;-61
2024/02/10 06:40:41;;;;;;;12.38;7.32;;;11.90;99.90;;;12.09;100.00;98399.44;5014322;28;20100;-62
2024/02/10 06:43:12;;;;;;;14.50;7.30;;;11.90;99.90;;;12.08;100.00;98407.47;5014246;28;20129;-63
2024/02/10 06:45:40;;;;;;;14.43;6.40;;;12.00;99.90;;;12.14;100.00;98397.41;5014525;28;20303;-61
2024/02/10 06:48:11;;;;;;;10.77;6.13;;;12.00;99.90;;;12.22;100.00;98419.09;5014087;28;20080;-61
2024/02/10 06:50:43;;;;;;;12.73;6.30;;;12.10;99.90;;;12.27;100.00;98416.22;5014342;28;20066;-61
2024/02/10 06:53:14;;;;;;;10.20;6.30;;;12.10;99.90;;;12.34;100.00;98420.25;5014382;28;20061;-62
2024/02/10 06:55:45;;;;;;;10.30;6.47;;;12.10;99.90;;;12.34;100.00;98434.38;5014198;28;20408;-62
2024/02/10 06:58:14;;;;;;;9.73;5.88;;;12.20;99.90;;;12.38;100.00;98421.81;5014165;28;20407;-62
2024/02/10 07:00:43;;;;;;;11.43;6.30;;;12.20;99.90;;;12.44;100.00;98435.63;5013826;28;20530;-65
2024/02/10 07:03:14;;;;;;;15.70;6.72;;;12.20;99.90;;;12.45;100.00;98420.56;5013897;28;20510;-63
2024/02/10 07:05:45;;;;;;;9.57;6.30;;;12.30;99.90;;;12.42;100.00;98418.94;5013817;28;20046;-63
2024/02/10 07:08:16;;;;;;;11.52;6.47;;;12.30;99.90;;;12.48;100.00;98444.28;5012792;28;20050;-66
2024/02/10 07:10:47;;;;;;;;;;;12.30;99.90;;;12.37;100.00;98449.25;5014129;28;20046;-61
2024/02/10 07:13:16;;;;;;;12.15;5.95;;;12.20;99.90;;;12.49;100.00;98433.59;5013985;28;19925;-63
2024/02/10 07:15:44;;;;;;;10.25;6.07;;;12.20;99.90;;;12.60;100.00;98441.00;5013508;28;20045;-63
2024/02/10 07:18:13;;;;;;;10.73;6.15;;;12.40;99.90;;;12.54;100.00;98434.19;5013815;28;20053;-62
2024/02/10 07:20:42;;;;;;;10.77;6.20;;;12.40;99.90;;;12.49;100.00;98430.94;5013324;28;20129;-61
2024/02/10 07:23:10;;;;;;;16.40;6.60;;;12.40;99.90;;;12.64;100.00;98442.53;4996140;28;20566;-64
2024/02/10 07:25:39;;;;;;;12.00;6.40;;;12.40;99.90;;;12.68;100.00;98438.78;5011077;28;20049;-61
2024/02/10 07:28:11;;;;;;;13.52;6.63;;;12.50;99.90;;;12.76;100.00;98430.44;5013339;28;20487;-63
2024/02/10 07:30:51;;;;;;;16.65;6.68;;;12.50;99.90;;;12.78;100.00;98434.72;5013574;28;20054;-62
2024/02/10 07:33:22;;;;;;;10.77;6.70;;;12.50;99.90;;;12.77;100.00;98442.78;5013383;28;20550;-62
2024/02/10 07:35:50;;;;;;;14.77;6.20;;;12.60;99.90;;;12.82;100.00;98446.91;5013517;28;20041;-63
2024/02/10 07:38:20;;;;;;;11.05;6.07;;;12.60;99.90;;;12.88;100.00;98451.03;5013315;28;20125;-62
2024/02/10 07:40:49;;;;;;;11.65;6.50;;;12.60;99.90;;;12.88;100.00;98449.22;5013291;28;20045;-62
2024/02/10 07:43:19;;;;;;;12.38;6.95;;;12.70;99.90;;;12.85;100.00;98462.69;5013029;28;20061;-62
2024/02/10 07:45:48;;;;;;;10.50;6.00;;;12.70;99.90;;;12.71;100.00;98462.53;5013132;28;20056;-65
2024/02/10 07:48:18;;;;;;;11.80;6.65;;;12.60;99.90;;;12.62;100.00;98461.19;5013483;28;20120;-64
2024/02/10 07:50:49;;;;;;;11.38;6.45;;;12.40;99.90;;;12.61;100.00;98456.84;5013397;28;20056;-63
2024/02/10 07:53:19;;;;;;;11.88;6.97;;;12.40;99.90;;;12.62;100.00;98471.78;5013290;28;20128;-62
2024/02/10 07:55:50;;;;;;;11.45;6.65;;;12.40;99.90;;;12.65;100.00;98471.66;5012824;28;20135;-64
2024/02/10 07:58:21;;;;;;;10.18;7.43;;;12.50;99.90;;;12.87;100.00;98471.41;5011785;28;20406;-62
2024/02/10 08:00:50;;;;;;;13.23;7.65;;;12.60;99.90;;;13.06;100.00;98480.16;5013084;28;20541;-65
2024/02/10 08:03:20;;;;;;;10.55;7.30;;;12.80;99.90;;;13.27;100.00;98492.28;5013102;28;20066;-62
2024/02/10 08:05:51;;;;;;;14.63;8.07;;;13.00;99.90;;;13.37;100.00;98474.94;5012691;28;20792;-61
2024/02/10 08:08:23;;;;;;;12.30;8.20;;;13.10;99.90;;;13.53;100.00;98475.78;5011100;28;20096;-62
2024/02/10 08:10:52;;;;;;;15.18;8.30;;;13.30;99.90;;;13.85;99.56;98473.16;5012613;28;20132;-63
2024/02/10 08:13:25;;;;;;;12.48;7.32;;;13.50;99.90;;;13.93;98.12;98470.94;5012351;28;20096;-63
2024/02/10 08:15:54;;;;;;;12.50;7.68;;;13.70;99.90;;;13.99;96.65;98481.22;5012513;28;20542;-62
2024/02/10 08:18:25;;;;;;;13.32;7.68;;;13.80;99.90;;;14.10;95.82;98482.31;5012386;28;20042;-62
2024/02/10 08:20:54;;;;;;;10.27;8.00;;;13.80;99.90;;;14.32;94.97;98489.97;5012267;28;20046;-63
2024/02/10 08:23:23;;;;;;;10.82;7.72;;;14.00;99.90;;;14.45;93.57;98485.66;5012470;28;20057;-63
2024/02/10 08:25:54;;;;;;;10.05;7.13;;;14.20;99.90;;;14.56;92.14;98488.53;5012342;28;20045;-65
2024/02/10 08:28:26;;;;;;;12.35;7.03;;;14.40;99.90;;;14.51;91.53;98509.22;5012231;28;20427;-63
2024/02/10 08:30:57;;;;;;;8.27;6.30;;;14.40;99.90;;;14.51;91.51;98516.34;5012166;28;20087;-62
2024/02/10 08:33:30;;;;;;;11.88;7.60;;;14.30;99.90;;;14.34;91.04;98515.50;5012357;28;20065;-63
2024/02/10 08:35:59;;;;;;;10.23;7.03;;;14.20;99.90;;;14.12;92.12;98519.44;5011769;28;20073;-62
2024/02/10 08:38:29;;;;;;;13.15;7.63;;;14.00;99.90;;;14.12;92.17;98519.44;5012223;28;20069;-66
2024/02/10 08:40:57;;;;;;;8.97;6.70;;;14.00;99.90;;;14.06;92.70;98522.44;5012208;28;20115;-65
2024/02/10 08:43:27;;;;;;;8.10;6.80;;;13.90;99.90;;;14.05;93.36;98512.78;5011845;28;20277;-62
2024/02/10 08:45:57;;;;;;;10.35;7.05;;;13.90;99.90;;;13.92;94.02;98515.22;5012456;28;20422;-62
2024/02/10 08:48:25;;;;;;;10.50;6.80;;;13.80;99.90;;;14.08;94.17;98518.75;5011913;28;20054;-63
2024/02/10 08:50:54;;;;;;;9.23;7.00;;;13.90;99.90;;;14.20;93.78;98522.53;5011755;28;20404;-65
2024/02/10 08:53:23;;;;;;;10.52;7.00;;;14.00;99.90;;;14.20;93.46;98519.88;5011573;28;20057;-63
2024/02/10 08:55:52;;;;;;;10.48;6.60;;;14.00;99.90;;;14.18;93.21;98524.41;5011695;28;20046;-65
2024/02/10 08:58:22;;;;;;;11.70;6.97;;;13.90;99.90;;;14.27;92.87;98529.19;5011783;28;20046;-63
2024/02/10 09:00:54;;;;;;;13.18;7.45;;;14.10;99.90;;;14.23;92.79;98525.00;5011637;28;20472;-63
2024/02/10 09:03:22;;;;;;;11.18;7.00;;;14.00;99.90;;;13.95;93.13;98538.13;5011826;28;20038;-62
2024/02/10 09:05:51;;;;;;;10.20;7.78;;;13.90;99.90;;;13.76;93.93;98548.06;5010397;28;20384;-63
2024/02/10 09:08:19;;;;;;;13.50;7.65;;;13.60;99.90;;;13.54;95.17;98530.63;5011668;28;20069;-62
2024/02/10 09:10:48;;;;;;;12.00;7.63;;;13.40;99.90;;;13.44;96.19;98541.81;5010271;28;20049;-63
2024/02/10 09:13:19;;;;;;;11.68;7.20;;;13.30;99.90;;;13.26;96.95;98546.28;5011293;28;20042;-64
2024/02/10 09:15:47;;;;;;;12.40;7.78;;;13.10;99.90;;;13.06;98.19;98550.94;5011630;28;20384;-62
2024/02/10 09:18:18;;;;;;;12.68;7.50;;;12.90;99.90;;;12.92;99.45;98554.25;5011360;28;20393;-62
2024/02/10 09:20:47;;;;;;;12.00;7.55;;;12.80;99.90;;;12.79;100.00;98557.63;5011177;28;20050;-62
2024/02/10 09:23:16;;;;;;;10.65;7.88;;;12.60;99.90;;;12.68;100.00;98551.03;5010134;28;20092;-65
2024/02/10 09:25:48;;;;;;;13.13;7.83;;;12.50;99.90;;;12.63;100.00;98557.53;5011605;28;20125;-70
2024/02/10 09:28:18;;;;;;;12.13;8.07;;;12.50;99.90;;;12.69;100.00;98554.56;5011211;28;20052;-63
2024/02/10 09:30:47;;;;;;;12.60;8.23;;;12.50;99.90;;;12.59;100.00;98556.81;5010137;28;20080;-62
2024/02/10 09:33:22;;;;;;;12.82;8.20;;;12.50;99.90;;;12.54;100.00;98557.97;5011691;28;20049;-63
2024/02/10 09:35:52;;;;;;;13.65;7.57;;;12.40;99.90;;;12.63;100.00;98553.09;5011347;28;20053;-62
2024/02/10 09:38:22;;;;;;;10.60;8.00;;;12.50;99.90;;;12.55;100.00;98559.69;5011105;28;20046;-62
2024/02/10 09:40:56;;;;;;;11.68;8.00;;;12.40;99.90;;;12.53;100.00;98558.91;5011217;28;20403;-62
2024/02/10 09:43:32;;;;;;;13.43;7.70;;;12.40;99.90;;;12.40;100.00;98550.72;5010052;28;20132;-62
2024/02/10 09:46:06;;;;;;;13.18;8.15;;;12.40;99.90;;;12.65;100.00;98555.66;5011367;28;20050;-62
2024/02/10 09:48:41;;;;;;;10.30;7.38;;;12.50;99.90;;;12.66;100.00;98552.03;4992806;28;20081;-63
2024/02/10 09:51:10;;;;;;;12.43;7.25;;;12.50;99.90;;;12.78;100.00;98551.44;5010919;28;20478;-64
2024/02/10 09:53:40;;;;;;;9.63;7.60;;;12.60;99.90;;;12.77;100.00;98548.88;4993250;28;20510;-61
2024/02/10 09:56:12;;;;;;;10.07;7.60;;;12.60;99.90;;;12.79;100.00;98539.03;4993213;28;20042;-62
2024/02/10 09:58:43;;;;;;;12.63;7.30;;;12.60;99.90;;;12.76;100.00;98550.66;5010884;28;20045;-64
2024/02/10 10:01:13;;;;;;;10.32;7.70;;;12.50;99.90;;;12.54;100.00;98552.69;4993241;28;20054;-62
2024/02/10 10:03:43;;;;;;;10.30;7.63;;;12.30;99.90;;;12.56;100.00;98556.13;5009950;28;20108;-62
2024/02/10 10:06:12;;;;;;;12.77;7.55;;;12.20;99.90;;;12.66;100.00;98557.34;5010784;28;20046;-66
2024/02/10 10:08:41;;;;;;;13.63;7.38;;;12.40;99.90;;;12.80;100.00;98559.31;5010848;28;20038;-65
2024/02/10 10:11:11;;;;;;;12.27;7.50;;;12.50;99.90;;;12.61;100.00;98562.03;5010711;28;20038;-65
2024/02/10 10:13:40;;;;;;;14.48;7.78;;;12.40;99.90;;;12.56;100.00;98566.72;5011138;28;20165;-62
2024/02/10 10:16:09;;;;;;;12.68;8.40;;;12.30;99.90;;;12.38;100.00;98555.22;5012611;28;20046;-62
2024/02/10 10:18:39;;;;;;;13.00;8.10;;;12.20;99.90;;;12.51;100.00;98555.47;5013174;28;20042;-62
2024/02/10 10:21:10;;;;;;;11.18;7.88;;;12.20;99.90;;;12.72;100.00;98550.91;5012466;28;20045;-62